Time,TemperatureF,DewpointF,PressureIn,WindDirection,WindDirectionDegrees,WindSpeedMPH,WindSpeedGustMPH,Humidity,HourlyPrecipIn,Conditions,Clouds,dailyrainin,SoftwareType,DateUTC
2013-07-24 00:00:00,75.7,75.7,29.72,WSW,256,0.0,1.0,100,0.00,,,0.00,WeatherDisplay:10.37,2013-07-24 04:00:00,
2013-07-24 00:23:00,75.4,75.4,29.72,WSW,256,0.0,1.0,100,0.00,,,0.00,WeatherDisplay:10.37,2013-07-24 04:23:00,
2013-07-24 01:00:00,75.0,75.0,29.71,WSW,256,0.0,2.0,100,0.00,,,0.00,WeatherDisplay:10.37,2013-07-24 05:00:00,
2013-07-24 02:00:00,74.8,74.8,29.71,SSW,209,0.0,5.0,100,0.00,,,0.00,WeatherDisplay:10.37,2013-07-24 06:00:00,
2013-07-24 03:00:00,74.8,74.8,29.69,SW,234,0.0,6.0,100,0.00,,,0.00,WeatherDisplay:10.37,2013-07-24 07:00:00,
2013-07-24 04:00:00,73.6,73.6,29.68,West,276,0.0,3.0,100,0.00,,,0.00,WeatherDisplay:10.37,2013-07-24 08:00:00,
2013-07-24 05:00:00,72.9,72.9,29.68,WSW,249,0.0,3.0,100,0.00,,,0.00,WeatherDisplay:10.37,2013-07-24 09:00:00,
2013-07-24 06:00:00,71.9,71.9,29.68,WSW,254,0.0,1.0,100,0.00,,,0.00,WeatherDisplay:10.37,2013-07-24 10:00:00,
2013-07-24 07:00:00,71.0,71.0,29.70,WSW,254,0.0,0.0,100,0.00,,,0.00,WeatherDisplay:10.37,2013-07-24 11:00:00,
2013-07-24 08:00:00,72.4,-20.9,29.72,WSW,254,0.0,0.0,2,0.00,CLR,,0.00,WeatherDisplay:10.37,2013-07-24 12:00:00,
2013-07-24 09:00:00,78.6,78.6,29.74,NNW,331,0.0,4.0,100,0.00,,,0.00,WeatherDisplay:10.37,2013-07-24 13:00:00,
2013-07-24 10:00:00,84.1,84.1,29.74,WSW,255,0.0,5.0,100,0.00,CLR,,0.00,WeatherDisplay:10.37,2013-07-24 14:00:00,
2013-07-24 11:00:00,87.3,18.7,29.73,NNE,17,0.0,5.0,8,0.00,CLR,,0.00,WeatherDisplay:10.37,2013-07-24 15:00:00,
2013-07-24 12:00:00,89.9,36.1,29.74,WNW,292,0.0,4.0,15,0.00,CLR,,0.00,WeatherDisplay:10.37,2013-07-24 16:00:00,
2013-07-24 13:00:00,91.7,39.1,29.72,West,265,0.0,6.0,16,0.00,CLR,,0.00,WeatherDisplay:10.37,2013-07-24 17:00:00,
2013-07-24 14:00:00,90.7,38.3,29.72,NW,321,0.0,4.0,16,0.00,CLR,,0.00,WeatherDisplay:10.37,2013-07-24 18:00:00,
2013-07-24 15:00:00,92.0,43.8,29.70,NNE,29,0.0,5.0,19,0.00,CLR,,0.00,WeatherDisplay:10.37,2013-07-24 19:00:00,
2013-07-24 16:00:00,91.8,39.2,29.69,WNW,296,0.0,5.0,16,0.00,CLR,,0.00,WeatherDisplay:10.37,2013-07-24 20:00:00,
2013-07-24 17:00:00,91.4,41.9,29.69,SSE,154,0.0,3.0,18,0.00,CLR,,0.00,WeatherDisplay:10.37,2013-07-24 21:00:00,
2013-07-24 18:00:00,91.3,41.8,29.69,NNW,336,0.0,1.0,18,0.00,CLR,,0.00,WeatherDisplay:10.37,2013-07-24 22:00:00,
2013-07-24 19:00:00,84.0,19.1,29.70,SW,235,0.0,6.0,9,0.00,CLR,,0.00,WeatherDisplay:10.37,2013-07-24 23:00:00,
2013-07-24 20:00:00,80.7,80.7,29.72,SW,235,0.0,0.0,100,0.00,,,0.00,WeatherDisplay:10.37,2013-07-25 00:00:00,
2013-07-24 21:00:00,77.7,77.7,29.74,WSW,243,0.0,2.0,100,0.00,,,0.00,WeatherDisplay:10.37,2013-07-25 01:00:00,
2013-07-24 22:00:00,75.8,75.8,29.76,WSW,243,0.0,0.0,100,0.00,,,0.00,WeatherDisplay:10.37,2013-07-25 02:00:00,
2013-07-24 23:01:00,75.5,75.5,29.78,WSW,244,0.0,0.0,100,0.00,,,0.00,WeatherDisplay:10.37,2013-07-25 03:01:00,